JFA45C LFPB-LFMD
Flight info
| Callsign | JFA45C |
|---|---|
| Flight time | N/A |
| Altitude | 27000 |
| Route | LATRA DCT LAMUT DCT UTUVA DCT LERGA DCT LIQID DCT LATAM DCT MTL DCT XATEL |
| Aircraft | PC12/L-SDFGRWY/S |
Departure
| Time | 2026-04-21 20:00 |
|---|---|
| Airport | Paris-Le Bourget International Airport (LFPB) |
Arrival
| Time | N/A |
|---|---|
| Airport | Cannes Mandelieu Airport (LFMD) |
| Time | Latitude | Longitude | Altitude | Speed | Heading |
|---|---|---|---|---|---|
| 2026-04-21 19:36 | 48.96295 | 2.44758 | 168 ft | 0 kts | 356° |
| 2026-04-21 19:48 | 48.96294 | 2.44758 | 140 ft | 0 kts | 356° |
| 2026-04-21 19:53 | 48.96304 | 2.44757 | 168 ft | 7 kts | 356° |
| 2026-04-21 19:53 | 48.96327 | 2.44499 | 149 ft | 0 kts | 210° |
| 2026-04-21 19:53 | 48.96280 | 2.44465 | 148 ft | 16 kts | 206° |
| 2026-04-21 19:54 | 48.96160 | 2.44380 | 148 ft | 16 kts | 201° |
| 2026-04-21 19:54 | 48.96078 | 2.44325 | 148 ft | 14 kts | 204° |
| 2026-04-21 19:54 | 48.95987 | 2.44260 | 148 ft | 17 kts | 208° |
| 2026-04-21 19:54 | 48.95870 | 2.44180 | 147 ft | 21 kts | 204° |
| 2026-04-21 19:55 | 48.95771 | 2.44109 | 147 ft | 17 kts | 206° |
| 2026-04-21 19:55 | 48.95693 | 2.44038 | 147 ft | 11 kts | 257° |
| 2026-04-21 19:55 | 48.95723 | 2.43909 | 147 ft | 15 kts | 294° |
| 2026-04-21 19:55 | 48.95770 | 2.43752 | 147 ft | 15 kts | 295° |
| 2026-04-21 19:56 | 48.95818 | 2.43594 | 147 ft | 18 kts | 296° |
| 2026-04-21 19:56 | 48.95872 | 2.43416 | 147 ft | 20 kts | 295° |
| 2026-04-21 19:56 | 48.95933 | 2.43215 | 147 ft | 22 kts | 295° |
| 2026-04-21 19:56 | 48.96016 | 2.43016 | 146 ft | 23 kts | 309° |
| 2026-04-21 19:57 | 48.96119 | 2.42824 | 145 ft | 24 kts | 309° |
| 2026-04-21 19:57 | 48.96223 | 2.42620 | 144 ft | 24 kts | 308° |
| 2026-04-21 19:57 | 48.96269 | 2.42465 | 143 ft | 18 kts | 272° |
| 2026-04-21 19:57 | 48.96264 | 2.42280 | 143 ft | 17 kts | 268° |
| 2026-04-21 19:58 | 48.96265 | 2.42154 | 143 ft | 11 kts | 278° |
| 2026-04-21 19:58 | 48.96302 | 2.42067 | 143 ft | 9 kts | 340° |
| 2026-04-21 19:58 | 48.96361 | 2.42061 | 142 ft | 8 kts | 36° |
| 2026-04-21 19:58 | 48.96373 | 2.42102 | 142 ft | 0 kts | 77° |
| 2026-04-21 19:59 | 48.96379 | 2.42136 | 141 ft | 15 kts | 81° |
| 2026-04-21 19:59 | 48.96403 | 2.42607 | 144 ft | 76 kts | 85° |
| 2026-04-21 19:59 | 48.96462 | 2.43600 | 321 ft | 101 kts | 81° |
| 2026-04-21 19:59 | 48.96532 | 2.44744 | 749 ft | 116 kts | 82° |
| 2026-04-21 20:00 | 48.96592 | 2.45983 | 1365 ft | 117 kts | 84° |
| 2026-04-21 20:00 | 48.96658 | 2.47207 | 2169 ft | 113 kts | 84° |
| 2026-04-21 20:00 | 48.96719 | 2.48419 | 2814 ft | 120 kts | 85° |
| 2026-04-21 20:00 | 48.96801 | 2.49798 | 3271 ft | 140 kts | 84° |
| 2026-04-21 20:01 | 48.96881 | 2.51221 | 4142 ft | 125 kts | 86° |
| 2026-04-21 20:01 | 48.96930 | 2.52463 | 5060 ft | 117 kts | 91° |
| 2026-04-21 20:01 | 48.96807 | 2.53712 | 5751 ft | 120 kts | 94° |
| 2026-04-21 20:01 | 48.96721 | 2.54983 | 6516 ft | 122 kts | 94° |
| 2026-04-21 20:02 | 48.96632 | 2.56286 | 7237 ft | 126 kts | 93° |
| 2026-04-21 20:02 | 48.96539 | 2.57652 | 7932 ft | 133 kts | 93° |
| 2026-04-21 20:02 | 48.96440 | 2.59086 | 8662 ft | 140 kts | 94° |
| 2026-04-21 20:02 | 48.95893 | 2.60364 | 9378 ft | 156 kts | 138° |
| 2026-04-21 20:03 | 48.94828 | 2.60860 | 10112 ft | 171 kts | 183° |
| 2026-04-21 20:03 | 48.93664 | 2.60439 | 10837 ft | 174 kts | 194° |
| 2026-04-21 20:03 | 48.92486 | 2.59949 | 11577 ft | 177 kts | 194° |
| 2026-04-21 20:03 | 48.91289 | 2.59465 | 12333 ft | 179 kts | 195° |
| 2026-04-21 20:04 | 48.90098 | 2.58987 | 13090 ft | 180 kts | 195° |
| 2026-04-21 20:04 | 48.88880 | 2.58500 | 13848 ft | 182 kts | 195° |
| 2026-04-21 20:04 | 48.87645 | 2.58006 | 14532 ft | 185 kts | 197° |
| 2026-04-21 20:04 | 48.86386 | 2.57503 | 15207 ft | 187 kts | 198° |
| 2026-04-21 20:05 | 48.85117 | 2.56997 | 15901 ft | 189 kts | 200° |
| 2026-04-21 20:05 | 48.83834 | 2.56485 | 16604 ft | 192 kts | 201° |
| 2026-04-21 20:05 | 48.82533 | 2.55966 | 17307 ft | 194 kts | 202° |
| 2026-04-21 20:05 | 48.81217 | 2.55442 | 17998 ft | 197 kts | 204° |
| 2026-04-21 20:06 | 48.79863 | 2.55072 | 18652 ft | 206 kts | 192° |
| 2026-04-21 20:06 | 48.78386 | 2.55085 | 19241 ft | 212 kts | 188° |
| 2026-04-21 20:06 | 48.76923 | 2.55075 | 19855 ft | 214 kts | 191° |
| 2026-04-21 20:06 | 48.75421 | 2.54996 | 20465 ft | 217 kts | 192° |
| 2026-04-21 20:07 | 48.73897 | 2.54910 | 21073 ft | 221 kts | 192° |
| 2026-04-21 20:07 | 48.72352 | 2.54831 | 21679 ft | 224 kts | 192° |
| 2026-04-21 20:07 | 48.70794 | 2.54754 | 22276 ft | 228 kts | 192° |
| 2026-04-21 20:07 | 48.69197 | 2.54675 | 22870 ft | 231 kts | 193° |
| 2026-04-21 20:08 | 48.67575 | 2.54593 | 23437 ft | 235 kts | 193° |
| 2026-04-21 20:08 | 48.65937 | 2.54513 | 24002 ft | 236 kts | 193° |
| 2026-04-21 20:08 | 48.64299 | 2.54435 | 24569 ft | 234 kts | 193° |
| 2026-04-21 20:08 | 48.62672 | 2.54355 | 25138 ft | 233 kts | 194° |
| 2026-04-21 20:09 | 48.61061 | 2.54275 | 25730 ft | 230 kts | 194° |
| 2026-04-21 20:09 | 48.59468 | 2.54196 | 26319 ft | 228 kts | 194° |
| 2026-04-21 20:09 | 48.57882 | 2.54116 | 26877 ft | 229 kts | 195° |
| 2026-04-21 20:09 | 48.56242 | 2.54019 | 27163 ft | 246 kts | 194° |
| 2026-04-21 20:10 | 48.54433 | 2.53904 | 27176 ft | 274 kts | 193° |
| 2026-04-21 20:10 | 48.52448 | 2.53809 | 27179 ft | 296 kts | 191° |
| 2026-04-21 20:10 | 48.50332 | 2.53721 | 27177 ft | 311 kts | 191° |
| 2026-04-21 20:10 | 48.48165 | 2.53623 | 27172 ft | 318 kts | 191° |
| 2026-04-21 20:11 | 48.45954 | 2.53520 | 27165 ft | 316 kts | 191° |
| 2026-04-21 20:11 | 48.43770 | 2.53415 | 27162 ft | 312 kts | 191° |
| 2026-04-21 20:11 | 48.41607 | 2.53305 | 27161 ft | 310 kts | 191° |
| 2026-04-21 20:11 | 48.39458 | 2.53196 | 27147 ft | 308 kts | 191° |
| 2026-04-21 20:12 | 48.37322 | 2.53091 | 27142 ft | 306 kts | 191° |
| 2026-04-21 20:12 | 48.35191 | 2.52986 | 27138 ft | 306 kts | 191° |
| 2026-04-21 20:12 | 48.33064 | 2.52880 | 27140 ft | 306 kts | 191° |
| 2026-04-21 20:12 | 48.30939 | 2.52776 | 27139 ft | 305 kts | 191° |
| 2026-04-21 20:13 | 48.28815 | 2.52670 | 27139 ft | 307 kts | 191° |
| 2026-04-21 20:13 | 48.26672 | 2.52563 | 27137 ft | 309 kts | 191° |
| 2026-04-21 20:13 | 48.24521 | 2.52459 | 27139 ft | 310 kts | 191° |
| 2026-04-21 20:13 | 48.22363 | 2.52354 | 27141 ft | 311 kts | 191° |
| 2026-04-21 20:14 | 48.20202 | 2.52248 | 27143 ft | 311 kts | 191° |
| 2026-04-21 20:14 | 48.18041 | 2.52142 | 27126 ft | 311 kts | 191° |
| 2026-04-21 20:14 | 48.15880 | 2.52037 | 27128 ft | 311 kts | 191° |
| 2026-04-21 20:14 | 48.13718 | 2.51931 | 27128 ft | 311 kts | 191° |
| 2026-04-21 20:15 | 48.11556 | 2.51825 | 27130 ft | 311 kts | 191° |
| 2026-04-21 20:15 | 48.09391 | 2.51750 | 27123 ft | 314 kts | 187° |
| 2026-04-21 20:15 | 48.07193 | 2.52250 | 27121 ft | 324 kts | 172° |
| 2026-04-21 20:15 | 48.05035 | 2.53290 | 27122 ft | 326 kts | 167° |
| 2026-04-21 20:16 | 48.02911 | 2.54357 | 27124 ft | 326 kts | 168° |
| 2026-04-21 20:16 | 48.00751 | 2.55415 | 27130 ft | 327 kts | 168° |
| 2026-04-21 20:16 | 47.98578 | 2.56478 | 27132 ft | 328 kts | 168° |
| 2026-04-21 20:16 | 47.96416 | 2.57544 | 27120 ft | 327 kts | 168° |
| 2026-04-21 20:17 | 47.94255 | 2.58612 | 27117 ft | 326 kts | 168° |
| 2026-04-21 20:17 | 47.92102 | 2.59669 | 27113 ft | 325 kts | 168° |
| 2026-04-21 20:17 | 47.89952 | 2.60723 | 27112 ft | 325 kts | 168° |
| 2026-04-21 20:17 | 47.87804 | 2.61777 | 27111 ft | 325 kts | 168° |
| 2026-04-21 20:18 | 47.86380 | 2.62475 | 27108 ft | 325 kts | 168° |
| 2026-04-21 20:18 | 47.83510 | 2.63882 | 27106 ft | 325 kts | 168° |
| 2026-04-21 20:18 | 47.81365 | 2.64931 | 27105 ft | 324 kts | 168° |
| 2026-04-21 20:18 | 47.79216 | 2.65982 | 27104 ft | 325 kts | 168° |
| 2026-04-21 20:19 | 47.77070 | 2.67030 | 27076 ft | 325 kts | 168° |
| 2026-04-21 20:19 | 47.74960 | 2.68062 | 27101 ft | 323 kts | 168° |
| 2026-04-21 20:19 | 47.72825 | 2.69102 | 27101 ft | 323 kts | 168° |
| 2026-04-21 20:19 | 47.70692 | 2.70141 | 27100 ft | 323 kts | 168° |
| 2026-04-21 20:20 | 47.68559 | 2.71179 | 27098 ft | 322 kts | 168° |
| 2026-04-21 20:20 | 47.66427 | 2.72216 | 27098 ft | 322 kts | 168° |
| 2026-04-21 20:20 | 47.64300 | 2.73250 | 27098 ft | 322 kts | 168° |
| 2026-04-21 20:20 | 47.62168 | 2.74286 | 27098 ft | 322 kts | 168° |
| 2026-04-21 20:21 | 47.60035 | 2.75320 | 27088 ft | 322 kts | 168° |
| 2026-04-21 20:21 | 47.57904 | 2.76353 | 27088 ft | 322 kts | 168° |
| 2026-04-21 20:21 | 47.55773 | 2.77386 | 27077 ft | 322 kts | 168° |
| 2026-04-21 20:21 | 47.53646 | 2.78415 | 27091 ft | 321 kts | 168° |
| 2026-04-21 20:22 | 47.51520 | 2.79443 | 27085 ft | 321 kts | 168° |
| 2026-04-21 20:22 | 47.47273 | 2.81493 | 27086 ft | 321 kts | 168° |
| 2026-04-21 20:22 | 47.45142 | 2.82521 | 27085 ft | 321 kts | 168° |
| 2026-04-21 20:23 | 47.43017 | 2.83546 | 27081 ft | 321 kts | 168° |
| 2026-04-21 20:23 | 47.40895 | 2.84567 | 27081 ft | 321 kts | 168° |
| 2026-04-21 20:23 | 47.38771 | 2.85589 | 27082 ft | 321 kts | 168° |
| 2026-04-21 20:23 | 47.36646 | 2.86610 | 27081 ft | 321 kts | 168° |
| 2026-04-21 20:24 | 47.34522 | 2.87630 | 27056 ft | 320 kts | 168° |
| 2026-04-21 20:24 | 47.32409 | 2.88650 | 27085 ft | 320 kts | 167° |
| 2026-04-21 20:24 | 47.30353 | 2.89957 | 27109 ft | 324 kts | 159° |
| 2026-04-21 20:24 | 47.28335 | 2.91477 | 27086 ft | 327 kts | 157° |
| 2026-04-21 20:25 | 47.26309 | 2.93050 | 27083 ft | 329 kts | 157° |
| 2026-04-21 20:25 | 47.24310 | 2.94610 | 27082 ft | 331 kts | 157° |
| 2026-04-21 20:25 | 47.22276 | 2.96199 | 27082 ft | 331 kts | 157° |
| 2026-04-21 20:25 | 47.20233 | 2.97793 | 27084 ft | 332 kts | 157° |
| 2026-04-21 20:26 | 47.18193 | 2.99384 | 27086 ft | 332 kts | 157° |
| 2026-04-21 20:26 | 47.16156 | 3.00972 | 27081 ft | 332 kts | 157° |
| 2026-04-21 20:26 | 47.14114 | 3.02563 | 27081 ft | 332 kts | 157° |
| 2026-04-21 20:26 | 47.12077 | 3.04149 | 27066 ft | 330 kts | 157° |
| 2026-04-21 20:27 | 47.10057 | 3.05722 | 27058 ft | 328 kts | 157° |
| 2026-04-21 20:27 | 47.08049 | 3.07287 | 27054 ft | 326 kts | 157° |
| 2026-04-21 20:27 | 47.06047 | 3.08847 | 27055 ft | 325 kts | 157° |
| 2026-04-21 20:27 | 47.04048 | 3.10406 | 27052 ft | 325 kts | 157° |
| 2026-04-21 20:28 | 47.02077 | 3.11946 | 27067 ft | 324 kts | 157° |
| 2026-04-21 20:28 | 47.00056 | 3.13480 | 27051 ft | 321 kts | 163° |
| 2026-04-21 20:28 | 46.97928 | 3.14174 | 27056 ft | 309 kts | 183° |
| 2026-04-21 20:28 | 46.95779 | 3.14440 | 27063 ft | 311 kts | 182° |
| 2026-04-21 20:29 | 46.93645 | 3.14982 | 27069 ft | 320 kts | 173° |
| 2026-04-21 20:29 | 46.91466 | 3.15907 | 27053 ft | 322 kts | 169° |
| 2026-04-21 20:29 | 46.89321 | 3.16813 | 27053 ft | 319 kts | 172° |
| 2026-04-21 20:29 | 46.87201 | 3.17562 | 27050 ft | 317 kts | 174° |
| 2026-04-21 20:30 | 46.85052 | 3.18300 | 27047 ft | 317 kts | 173° |
| 2026-04-21 20:30 | 46.82884 | 3.19098 | 27057 ft | 318 kts | 173° |
| 2026-04-21 20:30 | 46.80773 | 3.19890 | 27049 ft | 317 kts | 173° |
| 2026-04-21 20:30 | 46.78632 | 3.20675 | 27053 ft | 317 kts | 173° |
| 2026-04-21 20:31 | 46.76486 | 3.21452 | 27047 ft | 317 kts | 173° |
| 2026-04-21 20:31 | 46.74349 | 3.22231 | 27040 ft | 317 kts | 173° |
| 2026-04-21 20:31 | 46.72209 | 3.23015 | 27045 ft | 317 kts | 173° |
| 2026-04-21 20:31 | 46.70070 | 3.23796 | 27046 ft | 317 kts | 173° |
| 2026-04-21 20:32 | 46.67931 | 3.24575 | 27057 ft | 318 kts | 173° |
| 2026-04-21 20:32 | 46.65776 | 3.25358 | 27060 ft | 320 kts | 173° |
| 2026-04-21 20:32 | 46.63621 | 3.26142 | 27055 ft | 320 kts | 173° |
| 2026-04-21 20:32 | 46.61454 | 3.26931 | 27057 ft | 321 kts | 173° |
| 2026-04-21 20:33 | 46.59285 | 3.27719 | 27052 ft | 321 kts | 173° |
| 2026-04-21 20:33 | 46.57111 | 3.28509 | 27054 ft | 322 kts | 173° |
| 2026-04-21 20:33 | 46.54939 | 3.29295 | 27054 ft | 322 kts | 173° |
| 2026-04-21 20:33 | 46.52773 | 3.30080 | 27054 ft | 322 kts | 173° |
| 2026-04-21 20:34 | 46.50628 | 3.30857 | 27052 ft | 321 kts | 173° |
| 2026-04-21 20:34 | 46.48461 | 3.31641 | 27036 ft | 321 kts | 173° |
| 2026-04-21 20:34 | 46.46293 | 3.32424 | 27036 ft | 320 kts | 173° |
| 2026-04-21 20:34 | 46.44129 | 3.33206 | 27036 ft | 320 kts | 173° |
| 2026-04-21 20:35 | 46.41963 | 3.33988 | 27045 ft | 320 kts | 173° |
| 2026-04-21 20:35 | 46.39799 | 3.34768 | 27042 ft | 320 kts | 173° |
| 2026-04-21 20:35 | 46.38367 | 3.35284 | 27047 ft | 320 kts | 173° |
| 2026-04-21 20:35 | 46.35473 | 3.36325 | 27031 ft | 320 kts | 173° |
| 2026-04-21 20:36 | 46.34011 | 3.36851 | 27037 ft | 321 kts | 173° |
| 2026-04-21 20:36 | 46.31872 | 3.37620 | 27013 ft | 321 kts | 173° |
| 2026-04-21 20:36 | 46.29713 | 3.38396 | 27040 ft | 319 kts | 173° |
| 2026-04-21 20:36 | 46.27555 | 3.39171 | 27038 ft | 319 kts | 173° |
| 2026-04-21 20:37 | 46.25397 | 3.39944 | 27032 ft | 319 kts | 173° |
| 2026-04-21 20:37 | 46.23244 | 3.40715 | 27036 ft | 319 kts | 173° |
| 2026-04-21 20:37 | 46.21089 | 3.41487 | 27032 ft | 319 kts | 173° |
| 2026-04-21 20:37 | 46.18928 | 3.42260 | 27031 ft | 319 kts | 173° |
| 2026-04-21 20:38 | 46.16769 | 3.43032 | 27029 ft | 320 kts | 173° |
| 2026-04-21 20:38 | 46.14615 | 3.43801 | 27028 ft | 320 kts | 173° |
| 2026-04-21 20:38 | 46.12454 | 3.44572 | 27029 ft | 320 kts | 173° |
| 2026-04-21 20:38 | 46.10298 | 3.45341 | 27028 ft | 318 kts | 173° |
| 2026-04-21 20:39 | 46.08151 | 3.46106 | 27025 ft | 318 kts | 173° |
| 2026-04-21 20:39 | 46.06005 | 3.46870 | 27024 ft | 318 kts | 173° |
| 2026-04-21 20:39 | 46.03861 | 3.47632 | 27025 ft | 317 kts | 173° |
| 2026-04-21 20:39 | 46.01719 | 3.48394 | 27024 ft | 317 kts | 173° |
| 2026-04-21 20:40 | 45.99577 | 3.49155 | 27025 ft | 317 kts | 173° |
| 2026-04-21 20:40 | 45.97438 | 3.49914 | 27027 ft | 317 kts | 173° |
| 2026-04-21 20:40 | 45.95298 | 3.50672 | 27028 ft | 317 kts | 173° |
| 2026-04-21 20:40 | 45.93152 | 3.51432 | 27026 ft | 317 kts | 173° |
| 2026-04-21 20:41 | 45.91012 | 3.52190 | 27026 ft | 316 kts | 173° |
| 2026-04-21 20:41 | 45.88902 | 3.52937 | 27026 ft | 316 kts | 173° |
| 2026-04-21 20:41 | 45.86737 | 3.53702 | 27022 ft | 316 kts | 173° |
| 2026-04-21 20:41 | 45.84634 | 3.54445 | 27023 ft | 316 kts | 173° |
| 2026-04-21 20:42 | 45.82493 | 3.55200 | 27022 ft | 316 kts | 173° |
| 2026-04-21 20:42 | 45.80360 | 3.55952 | 27023 ft | 316 kts | 173° |
| 2026-04-21 20:42 | 45.78223 | 3.56705 | 27022 ft | 316 kts | 173° |
| 2026-04-21 20:42 | 45.76089 | 3.57457 | 27022 ft | 316 kts | 173° |
| 2026-04-21 20:43 | 45.73957 | 3.58207 | 27021 ft | 316 kts | 173° |
| 2026-04-21 20:43 | 45.71823 | 3.58957 | 27020 ft | 316 kts | 173° |
| 2026-04-21 20:43 | 45.69699 | 3.59703 | 27026 ft | 314 kts | 173° |
| 2026-04-21 20:43 | 45.67578 | 3.60448 | 27028 ft | 313 kts | 173° |
| 2026-04-21 20:44 | 45.65466 | 3.61188 | 27024 ft | 313 kts | 173° |
| 2026-04-21 20:44 | 45.63353 | 3.61927 | 27023 ft | 312 kts | 173° |
| 2026-04-21 20:44 | 45.61243 | 3.62667 | 27029 ft | 312 kts | 173° |
| 2026-04-21 20:44 | 45.59137 | 3.63404 | 27026 ft | 312 kts | 173° |
| 2026-04-21 20:45 | 45.57027 | 3.64141 | 27030 ft | 312 kts | 173° |
| 2026-04-21 20:45 | 45.54917 | 3.64878 | 27024 ft | 312 kts | 173° |
| 2026-04-21 20:45 | 45.52807 | 3.65615 | 27026 ft | 312 kts | 173° |
| 2026-04-21 20:45 | 45.50700 | 3.66350 | 27027 ft | 311 kts | 173° |
| 2026-04-21 20:46 | 45.48598 | 3.67083 | 27025 ft | 310 kts | 173° |
| 2026-04-21 20:46 | 45.46499 | 3.67813 | 27019 ft | 311 kts | 173° |
| 2026-04-21 20:46 | 45.44400 | 3.68544 | 27029 ft | 310 kts | 173° |
| 2026-04-21 20:46 | 45.42334 | 3.69491 | 27014 ft | 318 kts | 155° |
| 2026-04-21 20:47 | 45.40681 | 3.71595 | 27024 ft | 323 kts | 129° |
| 2026-04-21 20:47 | 45.39352 | 3.74182 | 27034 ft | 324 kts | 126° |
| 2026-04-21 20:47 | 45.37930 | 3.76673 | 27035 ft | 324 kts | 135° |
| 2026-04-21 20:47 | 45.36312 | 3.78837 | 27035 ft | 324 kts | 141° |
| 2026-04-21 20:48 | 45.34601 | 3.80983 | 27037 ft | 324 kts | 140° |
| 2026-04-21 20:48 | 45.32980 | 3.83215 | 27038 ft | 324 kts | 136° |
| 2026-04-21 20:48 | 45.31415 | 3.85466 | 27023 ft | 324 kts | 137° |
| 2026-04-21 20:48 | 45.29808 | 3.87703 | 27028 ft | 323 kts | 138° |
| 2026-04-21 20:49 | 45.28184 | 3.89913 | 27030 ft | 324 kts | 138° |
| 2026-04-21 20:49 | 45.26565 | 3.92135 | 27028 ft | 324 kts | 137° |
| 2026-04-21 20:49 | 45.24953 | 3.94366 | 27027 ft | 324 kts | 137° |
| 2026-04-21 20:49 | 45.23339 | 3.96594 | 27027 ft | 324 kts | 138° |
| 2026-04-21 20:50 | 45.21721 | 3.98818 | 27022 ft | 323 kts | 138° |
| 2026-04-21 20:50 | 45.20106 | 4.01035 | 27028 ft | 323 kts | 138° |
| 2026-04-21 20:50 | 45.18492 | 4.03251 | 27029 ft | 323 kts | 138° |
| 2026-04-21 20:50 | 45.16876 | 4.05471 | 27027 ft | 324 kts | 138° |
| 2026-04-21 20:51 | 45.15257 | 4.07691 | 27027 ft | 324 kts | 138° |
| 2026-04-21 20:51 | 45.13640 | 4.09906 | 27029 ft | 324 kts | 138° |
| 2026-04-21 20:51 | 45.12020 | 4.12123 | 27033 ft | 324 kts | 138° |
| 2026-04-21 20:51 | 45.10405 | 4.14332 | 27028 ft | 322 kts | 138° |
| 2026-04-21 20:52 | 45.08795 | 4.16533 | 27030 ft | 320 kts | 138° |
| 2026-04-21 20:52 | 45.07192 | 4.18721 | 27024 ft | 320 kts | 138° |
| 2026-04-21 20:52 | 45.05591 | 4.20905 | 27022 ft | 319 kts | 138° |
| 2026-04-21 20:52 | 45.03986 | 4.23093 | 27031 ft | 322 kts | 138° |
| 2026-04-21 20:53 | 45.02289 | 4.25179 | 27030 ft | 324 kts | 144° |
| 2026-04-21 20:53 | 45.00520 | 4.27170 | 27036 ft | 326 kts | 144° |
| 2026-04-21 20:53 | 44.98771 | 4.29164 | 27028 ft | 327 kts | 143° |
| 2026-04-21 20:53 | 44.97008 | 4.31184 | 27026 ft | 325 kts | 144° |
| 2026-04-21 20:54 | 44.95249 | 4.33186 | 27024 ft | 324 kts | 144° |
| 2026-04-21 20:54 | 44.93492 | 4.35179 | 27022 ft | 324 kts | 144° |
| 2026-04-21 20:54 | 44.91741 | 4.37167 | 27023 ft | 323 kts | 144° |
| 2026-04-21 20:54 | 44.89996 | 4.39150 | 27011 ft | 320 kts | 144° |
| 2026-04-21 20:55 | 44.88266 | 4.41113 | 27008 ft | 318 kts | 144° |
| 2026-04-21 20:55 | 44.86542 | 4.43066 | 26997 ft | 317 kts | 144° |
| 2026-04-21 20:55 | 44.84821 | 4.45012 | 26999 ft | 318 kts | 144° |
| 2026-04-21 20:55 | 44.83091 | 4.46970 | 26998 ft | 319 kts | 144° |
| 2026-04-21 20:56 | 44.81363 | 4.48925 | 26999 ft | 320 kts | 144° |
| 2026-04-21 20:56 | 44.79625 | 4.50888 | 27004 ft | 320 kts | 144° |
| 2026-04-21 20:56 | 44.77887 | 4.52849 | 27005 ft | 320 kts | 144° |
| 2026-04-21 20:56 | 44.76146 | 4.54813 | 27003 ft | 321 kts | 144° |
| 2026-04-21 20:57 | 44.74404 | 4.56776 | 26996 ft | 321 kts | 144° |
| 2026-04-21 20:57 | 44.72658 | 4.58741 | 27000 ft | 323 kts | 144° |
| 2026-04-21 20:57 | 44.70897 | 4.60723 | 26994 ft | 325 kts | 144° |
| 2026-04-21 20:57 | 44.69128 | 4.62711 | 26997 ft | 326 kts | 144° |
| 2026-04-21 20:58 | 44.67358 | 4.64700 | 26991 ft | 327 kts | 144° |
| 2026-04-21 20:58 | 44.65588 | 4.66688 | 26989 ft | 325 kts | 144° |
| 2026-04-21 20:58 | 44.63820 | 4.68670 | 26984 ft | 324 kts | 144° |
| 2026-04-21 20:58 | 44.62063 | 4.70639 | 26984 ft | 323 kts | 144° |
| 2026-04-21 20:59 | 44.60306 | 4.72605 | 26983 ft | 323 kts | 144° |
| 2026-04-21 20:59 | 44.58571 | 4.74547 | 26974 ft | 322 kts | 144° |
| 2026-04-21 20:59 | 44.56819 | 4.76506 | 26974 ft | 322 kts | 144° |
| 2026-04-21 20:59 | 44.55096 | 4.78528 | 26968 ft | 323 kts | 137° |
| 2026-04-21 21:00 | 44.53522 | 4.80778 | 26969 ft | 323 kts | 136° |
| 2026-04-21 21:00 | 44.51936 | 4.83017 | 26970 ft | 324 kts | 137° |
| 2026-04-21 21:00 | 44.50342 | 4.85243 | 26965 ft | 323 kts | 137° |
| 2026-04-21 21:00 | 44.48758 | 4.87468 | 26966 ft | 322 kts | 136° |
| 2026-04-21 21:01 | 44.47178 | 4.89695 | 26963 ft | 322 kts | 136° |
| 2026-04-21 21:01 | 44.45600 | 4.91914 | 26962 ft | 321 kts | 137° |
| 2026-04-21 21:01 | 44.44025 | 4.94121 | 26962 ft | 321 kts | 137° |
| 2026-04-21 21:01 | 44.42444 | 4.96337 | 26964 ft | 323 kts | 137° |
| 2026-04-21 21:02 | 44.40850 | 4.98570 | 26966 ft | 326 kts | 137° |
| 2026-04-21 21:02 | 44.39245 | 5.00818 | 26969 ft | 328 kts | 136° |
| 2026-04-21 21:02 | 44.37630 | 5.03077 | 26969 ft | 329 kts | 137° |
| 2026-04-21 21:02 | 44.36011 | 5.05340 | 26967 ft | 328 kts | 137° |
| 2026-04-21 21:03 | 44.34401 | 5.07589 | 26961 ft | 326 kts | 137° |
| 2026-04-21 21:03 | 44.32798 | 5.09826 | 26959 ft | 325 kts | 137° |
| 2026-04-21 21:03 | 44.31215 | 5.12031 | 26957 ft | 325 kts | 137° |
| 2026-04-21 21:03 | 44.29617 | 5.14257 | 26943 ft | 324 kts | 137° |
| 2026-04-21 21:04 | 44.28022 | 5.16478 | 26942 ft | 324 kts | 137° |
| 2026-04-21 21:04 | 44.26283 | 5.18431 | 26935 ft | 319 kts | 153° |
| 2026-04-21 21:04 | 44.24346 | 5.19918 | 26944 ft | 318 kts | 156° |
| 2026-04-21 21:04 | 44.22404 | 5.21393 | 26945 ft | 318 kts | 155° |
| 2026-04-21 21:05 | 44.20468 | 5.22882 | 26949 ft | 318 kts | 155° |
| 2026-04-21 21:05 | 44.18522 | 5.24375 | 26949 ft | 319 kts | 155° |
| 2026-04-21 21:05 | 44.16575 | 5.25859 | 26944 ft | 319 kts | 155° |
| 2026-04-21 21:05 | 44.14632 | 5.27340 | 26942 ft | 318 kts | 155° |
| 2026-04-21 21:06 | 44.12687 | 5.28824 | 26944 ft | 318 kts | 155° |
| 2026-04-21 21:06 | 44.10741 | 5.30308 | 26944 ft | 318 kts | 155° |
| 2026-04-21 21:06 | 44.08830 | 5.31763 | 26936 ft | 317 kts | 155° |
| 2026-04-21 21:06 | 44.06898 | 5.33234 | 26952 ft | 316 kts | 155° |
| 2026-04-21 21:07 | 44.04956 | 5.34708 | 26953 ft | 319 kts | 155° |
| 2026-04-21 21:07 | 44.03003 | 5.36192 | 26958 ft | 322 kts | 155° |
| 2026-04-21 21:07 | 44.01035 | 5.37687 | 26953 ft | 323 kts | 155° |
| 2026-04-21 21:07 | 43.99059 | 5.39186 | 26955 ft | 324 kts | 155° |
| 2026-04-21 21:08 | 43.97082 | 5.40685 | 26950 ft | 323 kts | 155° |
| 2026-04-21 21:08 | 43.95113 | 5.42175 | 26949 ft | 321 kts | 155° |
| 2026-04-21 21:08 | 43.93153 | 5.43654 | 26944 ft | 320 kts | 156° |
| 2026-04-21 21:08 | 43.91199 | 5.45128 | 26941 ft | 319 kts | 156° |
| 2026-04-21 21:09 | 43.89250 | 5.46597 | 26923 ft | 318 kts | 155° |
| 2026-04-21 21:09 | 43.87309 | 5.48061 | 26933 ft | 317 kts | 155° |
| 2026-04-21 21:09 | 43.85371 | 5.49521 | 26930 ft | 317 kts | 155° |
| 2026-04-21 21:09 | 43.83434 | 5.50978 | 26931 ft | 317 kts | 155° |
| 2026-04-21 21:10 | 43.81490 | 5.52439 | 26932 ft | 317 kts | 155° |
| 2026-04-21 21:10 | 43.79556 | 5.53893 | 26932 ft | 317 kts | 155° |
| 2026-04-21 21:10 | 43.77614 | 5.55351 | 26934 ft | 317 kts | 155° |
| 2026-04-21 21:10 | 43.75738 | 5.56950 | 26930 ft | 320 kts | 143° |
| 2026-04-21 21:11 | 43.74182 | 5.59160 | 26929 ft | 322 kts | 129° |
| 2026-04-21 21:11 | 43.72815 | 5.61618 | 26931 ft | 323 kts | 128° |
| 2026-04-21 21:11 | 43.71442 | 5.64071 | 26942 ft | 323 kts | 128° |
| 2026-04-21 21:11 | 43.70056 | 5.66517 | 26944 ft | 323 kts | 128° |
| 2026-04-21 21:12 | 43.68691 | 5.68927 | 26926 ft | 323 kts | 128° |
| 2026-04-21 21:12 | 43.67312 | 5.71369 | 26944 ft | 322 kts | 128° |
| 2026-04-21 21:12 | 43.65931 | 5.73812 | 26945 ft | 323 kts | 128° |
| 2026-04-21 21:12 | 43.64540 | 5.76253 | 26946 ft | 324 kts | 128° |
| 2026-04-21 21:13 | 43.63147 | 5.78696 | 26949 ft | 324 kts | 128° |
| 2026-04-21 21:13 | 43.61755 | 5.81139 | 26950 ft | 324 kts | 128° |
| 2026-04-21 21:13 | 43.61106 | 5.82278 | 26949 ft | 324 kts | 128° |